KCPR/CPR METAR and TAF weather

Enter ICAO airport designator
Station Type Date Time Source
KCPR METAR 2022/01/27 21:53 UTC NOAA

KCPR 272153Z 27014KT 10SM FEW049 M03/M11 A3036 RMK AO2 SLP328 T10281106


Station Type Date Time Source
KCPR Decoded METAR 2022/01/27 21:53 UTC NOAA

NATRONA COUNTY INTERNATIONAL AIRPORT , WY, United States (KCPR) 42-54N 106-28W 1621M
Jan 27, 2022 - 04:53 PM EST / 2022.01.27 2153 UTC
Wind: from the W (270 degrees) at 16 MPH (14 KT):0
Visibility: 10 mile(s):0
Sky conditions: mostly clear
Temperature: 27.0 F (-2.8 C)
Windchill: 14 F (-10 C):1
Dew Point: 12.9 F (-10.6 C)
Relative Humidity: 54%
Pressure (altimeter): 30.36 in. Hg (1028 hPa)
ob: KCPR 272153Z 27014KT 10SM FEW049 M03/M11 A3036 RMK AO2 SLP328 T10281106
cycle: 22

Station Type Date Time Source
KCPR TAF 2022/01/27 18:22 UTC NOAA

TAF KCPR 271720Z 2718/2818 32012G20KT P6SM BKN035
FM280000 25014KT P6SM SCT035
FM280800 23020G35KT P6SM FEW090

Example: see airport list